This is the latest recevied weather packets stored in our database for station/object SV9FBP. If no packets are shown the sender has not sent any weather packets the latest 10 day(s).
| Time | Temp. | Humidity | Pressure | Rain* | Wind** | Luminosity | Snow |
|---|---|---|---|---|---|---|---|
| 1777519952 | 16.67° C | 55% | 1013.1 hPa | 0 mm | - | - | - |
| 1777519050 | 16.11° C | 59% | 1013.1 hPa | 0 mm | - | - | - |
| 1777518147 | 15.56° C | 63% | 1013 hPa | 0 mm | - | - | - |
| 1777517246 | 15.56° C | 64% | 1013 hPa | 0 mm | - | - | - |
| 1777516343 | 15.56° C | 64% | 1013.1 hPa | 0 mm | - | - | - |
| 1777515441 | 15° C | 63% | 1013 hPa | 0 mm | - | - | - |
| 1777514539 | 15.56° C | 64% | 1013.2 hPa | 0 mm | - | - | - |
| 1777513637 | 15.56° C | 63% | 1013 hPa | 0 mm | - | - | - |
| 1777512735 | 15.56° C | 63% | 1013.1 hPa | 0 mm | - | - | - |
| 1777511832 | 15.56° C | 64% | 1013.1 hPa | 0 mm | - | - | - |
| 1777510930 | 15.56° C | 64% | 1013.2 hPa | 0 mm | - | - | - |
| 1777510028 | 15.56° C | 63% | 1013.2 hPa | 0 mm | - | - | - |
| 1777509126 | 15.56° C | 62% | 1013.2 hPa | 0 mm | - | - | - |
| 1777508224 | 16.11° C | 62% | 1013.4 hPa | 0 mm | - | - | - |
| 1777507322 | 16.11° C | 62% | 1013.4 hPa | 0 mm | - | - | - |
| 1777506420 | 16.11° C | 61% | 1013.7 hPa | 0 mm | - | - | - |
| 1777505520 | 16.11° C | 60% | 1013.6 hPa | 0 mm | - | - | - |
| 1777504616 | 16.11° C | 61% | 1013.6 hPa | 0 mm | - | - | - |
| 1777503713 | 16.67° C | 62% | 1013.7 hPa | 0 mm | - | - | - |
| 1777502811 | 16.67° C | 62% | 1013.8 hPa | 0 mm | - | - | - |
| 1777501908 | 16.67° C | 62% | 1014 hPa | 0 mm | - | - | - |
| 1777501006 | 16.67° C | 62% | 1014.2 hPa | 0 mm | - | - | - |
| 1777500104 | 16.67° C | 62% | 1014.2 hPa | 0 mm | - | - | - |
| 1777499203 | 17.22° C | 62% | 1014.3 hPa | 0 mm | - | - | - |
| 1777498300 | 17.22° C | 61% | 1014.3 hPa | 0 mm | - | - | - |
* Rain latest hour (hover to see other rain measurements)
** Current wind speed in m/s (hover to see current wind gust speed)